createdAt,value
2023-04-08T00:00:00.978Z,97.27
2023-04-08T00:01:00.945Z,97.17
2023-04-08T00:02:01.011Z,97.17
2023-04-08T00:03:01.087Z,97.17
2023-04-08T00:04:01.022Z,97.17
2023-04-08T00:05:00.900Z,97.17
2023-04-08T00:06:00.897Z,97.06
2023-04-08T00:07:00.869Z,97.01
2023-04-08T00:08:00.883Z,97.11
2023-04-08T00:09:00.840Z,97.01
2023-04-08T00:10:00.838Z,96.91
2023-04-08T00:11:00.806Z,96.91
2023-04-08T00:12:00.819Z,97.01
2023-04-08T00:13:00.804Z,97.01
2023-04-08T00:14:00.781Z,97.01
2023-04-08T00:15:00.775Z,97.01
2023-04-08T00:16:00.757Z,96.91
2023-04-08T00:17:00.870Z,96.91
2023-04-08T00:18:00.766Z,96.80
2023-04-08T00:19:00.708Z,96.80
2023-04-08T00:20:00.687Z,96.80
2023-04-08T00:21:00.668Z,96.70
2023-04-08T00:22:00.678Z,96.74
2023-04-08T00:23:00.635Z,96.53
2023-04-08T00:24:00.636Z,96.44
2023-04-08T00:25:00.614Z,96.44
2023-04-08T00:26:00.612Z,96.44
2023-04-08T00:27:00.622Z,96.33
2023-04-08T00:28:00.589Z,96.44
2023-04-08T00:29:00.566Z,96.53
2023-04-08T00:30:00.575Z,96.53
2023-04-08T00:31:00.576Z,96.58
2023-04-08T00:32:00.553Z,96.37
2023-04-08T00:33:00.554Z,96.37
2023-04-08T00:34:00.515Z,96.37
2023-04-08T00:35:00.488Z,96.48
2023-04-08T00:36:00.554Z,96.58
2023-04-08T00:37:00.483Z,96.48
2023-04-08T00:38:00.460Z,96.37
2023-04-08T00:39:00.439Z,96.37
2023-04-08T00:40:00.433Z,96.37
2023-04-08T00:41:00.406Z,96.37
2023-04-08T00:42:00.441Z,96.48
2023-04-08T00:43:00.384Z,96.58
2023-04-08T00:44:00.386Z,96.58
2023-04-08T00:45:00.365Z,96.52
2023-04-08T00:46:00.388Z,96.52
2023-04-08T00:47:00.346Z,96.52
2023-04-08T00:48:00.429Z,96.62
2023-04-08T00:49:00.304Z,96.73
2023-04-08T00:50:00.313Z,96.73
2023-04-08T00:51:00.289Z,96.73
2023-04-08T00:52:00.288Z,96.52
2023-04-08T00:53:00.263Z,96.52
2023-04-08T00:54:00.252Z,96.52
2023-04-08T00:55:00.237Z,96.62
2023-04-08T00:56:00.215Z,96.73
2023-04-08T00:57:00.238Z,96.73
2023-04-08T00:58:00.214Z,96.83
2023-04-08T00:59:00.212Z,96.83
2023-04-08T01:00:00.238Z,96.83
2023-04-08T01:01:00.159Z,96.83
2023-04-08T01:02:00.298Z,96.83
2023-04-08T01:03:00.214Z,96.83
2023-04-08T01:04:00.227Z,96.73
2023-04-08T01:05:00.136Z,96.73
2023-04-08T01:06:00.107Z,96.73
2023-04-08T01:07:00.111Z,96.73
2023-04-08T01:08:00.148Z,96.62
2023-04-08T01:09:00.049Z,96.52
2023-04-08T01:10:00.044Z,96.42
2023-04-08T01:11:00.039Z,96.21
2023-04-08T01:12:00.036Z,96.01
2023-04-08T01:12:59.999Z,96.01
2023-04-08T01:13:59.988Z,96.01
2023-04-08T01:14:59.966Z,96.05
2023-04-08T01:16:00.012Z,96.05
2023-04-08T01:16:59.972Z,95.95
2023-04-08T01:17:59.967Z,95.84
2023-04-08T01:18:59.924Z,95.64
2023-04-08T01:19:59.912Z,95.43
2023-04-08T01:20:59.902Z,95.32
2023-04-08T01:21:59.898Z,95.22
2023-04-08T01:22:59.872Z,95.22
2023-04-08T01:23:59.863Z,95.27
2023-04-08T01:24:59.851Z,95.17
2023-04-08T01:25:59.819Z,94.96
2023-04-08T01:26:59.845Z,94.85
2023-04-08T01:27:59.814Z,94.85
2023-04-08T01:28:59.806Z,94.96
2023-04-08T01:29:59.780Z,94.85
2023-04-08T01:30:59.845Z,94.96
2023-04-08T01:31:59.778Z,95.06
2023-04-08T01:32:59.891Z,95.27
2023-04-08T01:33:59.730Z,95.37
2023-04-08T01:34:59.716Z,95.48
2023-04-08T01:35:59.778Z,95.48
2023-04-08T01:36:59.719Z,95.42
2023-04-08T01:37:59.680Z,95.31
2023-04-08T01:38:59.669Z,95.21
2023-04-08T01:39:59.654Z,95.00
2023-04-08T01:40:59.639Z,94.79
2023-04-08T01:41:59.660Z,94.79
2023-04-08T01:42:59.612Z,94.79
2023-04-08T01:43:59.602Z,94.90
2023-04-08T01:44:59.596Z,95.00
2023-04-08T01:45:59.558Z,94.90
2023-04-08T01:46:59.604Z,94.90
2023-04-08T01:47:59.586Z,94.90
2023-04-08T01:48:59.543Z,94.79
2023-04-08T01:49:59.540Z,94.79
2023-04-08T01:50:59.522Z,95.00
2023-04-08T01:51:59.504Z,95.10
2023-04-08T01:52:59.502Z,95.21
2023-04-08T01:53:59.494Z,95.42
2023-04-08T01:54:59.462Z,95.52
2023-04-08T01:55:59.457Z,95.52
2023-04-08T01:56:59.436Z,95.52
2023-04-08T01:57:59.440Z,95.52
2023-04-08T01:58:59.413Z,95.42
2023-04-08T01:59:59.414Z,95.31
2023-04-08T02:00:59.393Z,95.21
2023-04-08T02:01:59.448Z,95.21
2023-04-08T02:02:59.668Z,95.31
2023-04-08T02:03:59.456Z,95.10
2023-04-08T02:04:59.330Z,95.00
2023-04-08T02:05:59.331Z,94.90
2023-04-08T02:06:59.311Z,95.04
2023-04-08T02:07:59.316Z,95.15
2023-04-08T02:08:59.282Z,95.25
2023-04-08T02:09:59.272Z,95.36
2023-04-08T02:10:59.267Z,95.36
2023-04-08T02:11:59.255Z,95.42
2023-04-08T02:12:59.251Z,95.52
2023-04-08T02:13:59.228Z,95.52
2023-04-08T02:14:59.217Z,95.56
2023-04-08T02:15:59.217Z,95.56
2023-04-08T02:16:59.182Z,95.52
2023-04-08T02:17:59.220Z,95.56
2023-04-08T02:18:59.162Z,95.36
2023-04-08T02:19:59.142Z,95.25
2023-04-08T02:20:59.144Z,95.15
2023-04-08T02:21:59.112Z,95.04
2023-04-08T02:22:59.112Z,94.84
2023-04-08T02:23:59.092Z,94.63
2023-04-08T02:24:59.077Z,94.43
2023-04-08T02:25:59.069Z,94.32
2023-04-08T02:26:59.053Z,94.26
2023-04-08T02:27:59.052Z,94.26
2023-04-08T02:28:59.021Z,94.37
2023-04-08T02:29:59.021Z,94.57
2023-04-08T02:30:58.991Z,94.78
2023-04-08T02:31:59.078Z,94.89
2023-04-08T02:32:59.018Z,94.98
2023-04-08T02:33:58.968Z,94.98
2023-04-08T02:34:58.942Z,95.09
2023-04-08T02:35:59.002Z,95.09
2023-04-08T02:36:58.928Z,95.09
2023-04-08T02:37:58.930Z,95.09
2023-04-08T02:38:58.895Z,94.98
2023-04-08T02:39:58.880Z,94.98
2023-04-08T02:40:58.873Z,94.89
2023-04-08T02:41:58.863Z,94.68
2023-04-08T02:42:58.870Z,94.57
2023-04-08T02:43:58.848Z,94.37
2023-04-08T02:44:58.810Z,94.06
2023-04-08T02:45:58.835Z,93.89
2023-04-08T02:46:58.801Z,93.79
2023-04-08T02:47:58.850Z,93.79
2023-04-08T02:48:58.758Z,93.89
2023-04-08T02:49:58.755Z,93.99
2023-04-08T02:50:58.743Z,94.04
2023-04-08T02:51:58.725Z,93.93
2023-04-08T02:52:58.726Z,94.04
2023-04-08T02:53:58.730Z,94.14
2023-04-08T02:54:58.686Z,94.24
2023-04-08T02:55:58.678Z,94.45
2023-04-08T02:56:58.660Z,94.45
2023-04-08T02:57:58.674Z,94.66
2023-04-08T02:58:58.630Z,94.76
2023-04-08T02:59:58.628Z,94.66
2023-04-08T03:00:58.654Z,94.66
2023-04-08T03:01:58.713Z,94.76
2023-04-08T03:02:58.693Z,94.87
2023-04-08T03:03:58.593Z,94.82
2023-04-08T03:04:58.560Z,94.82
2023-04-08T03:05:58.564Z,94.82
2023-04-08T03:06:58.542Z,94.72
2023-04-08T03:07:58.543Z,94.66
2023-04-08T03:08:58.525Z,94.56
2023-04-08T03:09:58.529Z,94.56
2023-04-08T03:10:58.477Z,94.56
2023-04-08T03:11:58.462Z,94.45
2023-04-08T03:12:58.474Z,94.35
2023-04-08T03:13:58.557Z,94.45
2023-04-08T03:14:58.422Z,94.45
2023-04-08T03:15:58.411Z,94.45
2023-04-08T03:16:58.435Z,94.35
2023-04-08T03:17:58.441Z,94.35
2023-04-08T03:18:58.371Z,94.24
2023-04-08T03:19:58.362Z,94.24
2023-04-08T03:20:58.344Z,94.14
2023-04-08T03:21:58.340Z,94.14
2023-04-08T03:22:58.328Z,94.14
2023-04-08T03:23:58.338Z,94.14
2023-04-08T03:24:58.286Z,94.18
2023-04-08T03:25:58.286Z,93.87
2023-04-08T03:26:58.281Z,93.66
2023-04-08T03:27:58.264Z,93.56
2023-04-08T03:28:58.269Z,93.35
2023-04-08T03:29:58.233Z,93.25
2023-04-08T03:30:58.210Z,93.35
2023-04-08T03:31:58.246Z,93.56
2023-04-08T03:32:58.203Z,93.77
2023-04-08T03:33:58.209Z,93.77
2023-04-08T03:34:58.157Z,93.77
2023-04-08T03:35:58.247Z,93.71
2023-04-08T03:36:58.140Z,93.77
2023-04-08T03:37:58.124Z,93.91
2023-04-08T03:38:58.117Z,93.91
2023-04-08T03:39:58.093Z,93.81
2023-04-08T03:40:58.095Z,93.71
2023-04-08T03:41:58.087Z,93.71
2023-04-08T03:42:58.056Z,93.60
2023-04-08T03:43:58.073Z,93.50
2023-04-08T03:44:58.031Z,93.50
2023-04-08T03:45:58.070Z,93.40
2023-04-08T03:46:58.025Z,93.40
2023-04-08T03:47:58.044Z,93.40
2023-04-08T03:48:57.999Z,93.40
2023-04-08T03:49:57.973Z,93.40
2023-04-08T03:50:57.965Z,93.29
2023-04-08T03:51:57.981Z,93.19
2023-04-08T03:52:57.923Z,93.19
2023-04-08T03:53:57.935Z,93.44
2023-04-08T03:54:57.901Z,93.60
2023-04-08T03:55:57.884Z,93.60
2023-04-08T03:56:57.874Z,93.65
2023-04-08T03:57:57.862Z,93.44
2023-04-08T03:58:57.854Z,93.33
2023-04-08T03:59:57.840Z,93.23
2023-04-08T04:00:57.817Z,93.13
2023-04-08T04:01:57.852Z,93.23
2023-04-08T04:02:57.836Z,93.44
2023-04-08T04:03:57.921Z,93.44
2023-04-08T04:04:57.835Z,93.44
2023-04-08T04:05:57.748Z,93.54
2023-04-08T04:06:57.746Z,93.65
2023-04-08T04:07:57.737Z,93.54
2023-04-08T04:08:57.724Z,93.54
2023-04-08T04:09:57.708Z,93.44
2023-04-08T04:10:57.685Z,93.33
2023-04-08T04:11:57.675Z,93.33
2023-04-08T04:12:57.658Z,93.44
2023-04-08T04:13:57.653Z,93.54
2023-04-08T04:14:57.623Z,93.59
2023-04-08T04:15:57.692Z,93.59
2023-04-08T04:16:57.603Z,93.70
2023-04-08T04:17:57.673Z,93.80
2023-04-08T04:18:57.619Z,93.90
2023-04-08T04:19:57.579Z,93.90
2023-04-08T04:20:57.576Z,94.11
2023-04-08T04:21:57.567Z,94.11
2023-04-08T04:22:57.544Z,94.21
2023-04-08T04:23:57.566Z,94.17
2023-04-08T04:24:57.509Z,94.17
2023-04-08T04:25:57.488Z,93.96
2023-04-08T04:26:57.479Z,93.85
2023-04-08T04:27:57.471Z,93.70
2023-04-08T04:28:57.477Z,93.38
2023-04-08T04:29:57.438Z,93.18
2023-04-08T04:30:57.440Z,93.18
2023-04-08T04:31:57.406Z,93.28
2023-04-08T04:32:57.460Z,93.43
2023-04-08T04:33:57.397Z,93.63
2023-04-08T04:34:57.370Z,93.80
2023-04-08T04:35:57.438Z,93.95
2023-04-08T04:36:57.340Z,93.84
2023-04-08T04:37:57.363Z,93.95
2023-04-08T04:38:57.359Z,93.84
2023-04-08T04:39:57.309Z,93.74
2023-04-08T04:40:57.282Z,93.74
2023-04-08T04:41:57.279Z,93.74
2023-04-08T04:42:57.263Z,93.63
2023-04-08T04:43:57.276Z,93.63
2023-04-08T04:44:57.235Z,93.63
2023-04-08T04:45:57.280Z,93.63
2023-04-08T04:46:57.207Z,93.53
2023-04-08T04:47:57.271Z,93.43
2023-04-08T04:48:57.189Z,93.43
2023-04-08T04:49:57.180Z,93.43
2023-04-08T04:50:57.149Z,93.43
2023-04-08T04:51:57.159Z,93.43
2023-04-08T04:52:57.119Z,93.53
2023-04-08T04:53:57.138Z,93.63
2023-04-08T04:54:57.112Z,93.63
2023-04-08T04:55:57.101Z,93.63
2023-04-08T04:56:57.080Z,93.74
2023-04-08T04:57:57.085Z,93.95
2023-04-08T04:58:57.081Z,93.95
2023-04-08T04:59:57.047Z,93.95
2023-04-08T05:00:57.044Z,93.95
2023-04-08T05:01:57.135Z,93.95
2023-04-08T05:02:57.046Z,93.95
2023-04-08T05:03:57.011Z,93.95
2023-04-08T05:04:57.009Z,94.05
2023-04-08T05:05:56.977Z,94.05
2023-04-08T05:06:56.957Z,94.05
2023-04-08T05:07:56.943Z,94.26
2023-04-08T05:08:56.925Z,94.36
2023-04-08T05:09:56.935Z,94.46
2023-04-08T05:10:56.905Z,94.57
2023-04-08T05:11:56.882Z,94.57
2023-04-08T05:12:56.872Z,94.46
2023-04-08T05:13:56.864Z,94.46
2023-04-08T05:14:56.846Z,94.40
2023-04-08T05:15:56.894Z,94.40
2023-04-08T05:16:56.817Z,94.30
2023-04-08T05:17:56.839Z,94.40
2023-04-08T05:18:56.796Z,94.30
2023-04-08T05:19:56.799Z,94.30
2023-04-08T05:20:56.775Z,94.30
2023-04-08T05:21:56.756Z,94.51
2023-04-08T05:22:56.765Z,94.71
2023-04-08T05:23:56.736Z,94.92
2023-04-08T05:24:56.737Z,95.03
2023-04-08T05:25:56.702Z,95.03
2023-04-08T05:26:56.731Z,95.13
2023-04-08T05:27:56.690Z,95.13
2023-04-08T05:28:56.677Z,95.13
2023-04-08T05:29:56.681Z,95.13
2023-04-08T05:30:56.653Z,95.13
2023-04-08T05:31:56.650Z,95.07
2023-04-08T05:32:59.377Z,95.03
2023-04-08T05:33:56.609Z,95.17
2023-04-08T05:34:56.609Z,95.23
2023-04-08T05:35:56.630Z,95.23
2023-04-08T05:36:56.616Z,95.23
2023-04-08T05:37:56.560Z,95.23
2023-04-08T05:38:56.549Z,95.13
2023-04-08T05:39:56.533Z,95.13
2023-04-08T05:40:56.518Z,95.23
2023-04-08T05:41:56.498Z,95.23
2023-04-08T05:42:56.502Z,95.23
2023-04-08T05:43:56.468Z,95.13
2023-04-08T05:44:56.489Z,95.13
2023-04-08T05:45:56.452Z,95.13
2023-04-08T05:46:56.500Z,94.92
2023-04-08T05:47:56.463Z,94.92
2023-04-08T05:48:56.407Z,94.98
2023-04-08T05:49:56.484Z,94.98
2023-04-08T05:50:56.386Z,94.88
2023-04-08T05:51:56.370Z,94.88
2023-04-08T05:52:56.346Z,94.78
2023-04-08T05:53:56.344Z,94.78
2023-04-08T05:54:56.367Z,94.78
2023-04-08T05:55:56.307Z,94.88
2023-04-08T05:56:56.290Z,94.98
2023-04-08T05:57:56.273Z,94.88
2023-04-08T05:58:56.269Z,94.78
2023-04-08T05:59:56.261Z,94.82
2023-04-08T06:01:03.426Z,94.71
2023-04-08T06:01:56.375Z,94.67
2023-04-08T06:02:56.397Z,94.67
2023-04-08T06:03:56.672Z,94.57
2023-04-08T06:04:56.292Z,94.46
2023-04-08T06:05:56.162Z,94.26
2023-04-08T06:06:56.158Z,94.15
2023-04-08T06:07:56.140Z,93.99
2023-04-08T06:08:56.127Z,94.05
2023-04-08T06:09:56.124Z,94.15
2023-04-08T06:10:56.100Z,94.26
2023-04-08T06:11:56.080Z,94.36
2023-04-08T06:12:56.070Z,94.26
2023-04-08T06:13:56.058Z,94.05
2023-04-08T06:14:56.199Z,94.05
2023-04-08T06:15:56.030Z,94.15
2023-04-08T06:16:56.104Z,94.15
2023-04-08T06:17:56.072Z,94.15
2023-04-08T06:18:56.008Z,94.15
2023-04-08T06:19:56.024Z,94.05
2023-04-08T06:20:55.974Z,94.05
2023-04-08T06:21:55.950Z,94.05
2023-04-08T06:22:55.945Z,93.95
2023-04-08T06:23:55.929Z,93.84
2023-04-08T06:24:55.957Z,93.74
2023-04-08T06:25:55.909Z,93.63
2023-04-08T06:26:55.905Z,93.53
2023-04-08T06:27:55.882Z,93.53
2023-04-08T06:28:55.864Z,93.53
2023-04-08T06:29:55.871Z,93.53
2023-04-08T06:30:55.834Z,93.43
2023-04-08T06:31:55.884Z,93.43
2023-04-08T06:32:55.861Z,93.32
2023-04-08T06:33:55.802Z,93.32
2023-04-08T06:34:55.820Z,93.37
2023-04-08T06:35:55.841Z,93.68
2023-04-08T06:36:55.770Z,93.88
2023-04-08T06:37:55.753Z,94.20
2023-04-08T06:38:55.748Z,94.30
2023-04-08T06:39:55.757Z,94.20
2023-04-08T06:40:55.720Z,94.15
2023-04-08T06:41:55.693Z,94.26
2023-04-08T06:42:55.690Z,94.26
2023-04-08T06:43:55.666Z,94.26
2023-04-08T06:44:55.688Z,94.26
2023-04-08T06:45:55.694Z,94.36
2023-04-08T06:46:55.636Z,94.46
2023-04-08T06:47:55.688Z,94.46
2023-04-08T06:48:55.610Z,94.46
2023-04-08T06:49:55.608Z,94.36
2023-04-08T06:50:55.586Z,94.15
2023-04-08T06:51:55.560Z,94.05
2023-04-08T06:52:55.557Z,94.11
2023-04-08T06:53:55.546Z,94.01
2023-04-08T06:54:55.556Z,94.01
2023-04-08T06:55:55.521Z,94.11
2023-04-08T06:56:55.506Z,94.01
2023-04-08T06:57:55.481Z,93.90
2023-04-08T06:58:55.473Z,93.90
2023-04-08T06:59:55.480Z,93.96
2023-04-08T07:00:55.483Z,94.06
2023-04-08T07:01:55.543Z,93.85
2023-04-08T07:02:55.466Z,93.65
2023-04-08T07:03:55.525Z,93.44
2023-04-08T07:04:55.423Z,93.23
2023-04-08T07:05:55.383Z,93.13
2023-04-08T07:06:55.377Z,93.33
2023-04-08T07:07:55.537Z,93.54
2023-04-08T07:08:55.369Z,93.71
2023-04-08T07:09:55.374Z,93.60
2023-04-08T07:10:55.327Z,93.50
2023-04-08T07:11:55.309Z,93.40
2023-04-08T07:12:55.299Z,93.08
2023-04-08T07:13:55.295Z,92.84
2023-04-08T07:14:55.287Z,92.63
2023-04-08T07:15:55.257Z,92.43
2023-04-08T07:16:55.275Z,92.53
2023-04-08T07:17:55.240Z,92.74
2023-04-08T07:18:55.214Z,92.84
2023-04-08T07:19:55.296Z,93.00
2023-04-08T07:20:55.193Z,93.00
2023-04-08T07:21:55.185Z,94.82
2023-04-08T07:22:55.188Z,96.54
2023-04-08T07:23:55.179Z,99.14
2023-04-08T07:24:55.298Z,99.09
2023-04-08T07:25:55.128Z,99.56
2023-04-08T07:26:55.122Z,99.99
2023-04-08T07:27:55.126Z,96.94
2023-04-08T07:28:55.089Z,94.40
2023-04-08T07:29:55.090Z,93.05
2023-04-08T07:30:55.108Z,93.12
2023-04-08T07:31:55.046Z,90.78
2023-04-08T07:32:55.086Z,88.65
2023-04-08T07:33:55.016Z,92.74
2023-04-08T07:34:55.032Z,93.88
2023-04-08T07:35:55.065Z,92.54
2023-04-08T07:36:55.003Z,91.13
2023-04-08T07:37:54.988Z,90.41
2023-04-08T07:38:54.959Z,90.31
2023-04-08T07:39:54.986Z,90.41
2023-04-08T07:40:54.932Z,90.62
2023-04-08T07:41:54.910Z,90.77
2023-04-08T07:42:54.910Z,90.77
2023-04-08T07:43:54.886Z,90.87
2023-04-08T07:44:54.894Z,90.77
2023-04-08T07:45:54.905Z,90.87
2023-04-08T07:46:54.857Z,91.17
2023-04-08T07:47:54.868Z,91.59
2023-04-08T07:48:54.846Z,91.80
2023-04-08T07:49:54.828Z,91.80
2023-04-08T07:51:08.029Z,91.75
2023-04-08T07:51:55.792Z,91.55
2023-04-08T07:52:54.781Z,91.65
2023-04-08T07:53:54.755Z,92.07
2023-04-08T07:54:54.766Z,92.38
2023-04-08T07:55:54.740Z,92.48
2023-04-08T07:56:54.724Z,92.68
2023-04-08T07:57:54.704Z,92.95
2023-04-08T07:58:54.943Z,93.16
2023-04-08T07:59:54.709Z,93.26
2023-04-08T08:00:54.680Z,93.37
2023-04-08T08:01:54.706Z,93.47
2023-04-08T08:02:54.698Z,93.57
2023-04-08T08:03:55.041Z,93.57
2023-04-08T08:04:54.701Z,93.47
2023-04-08T08:05:54.611Z,93.47
2023-04-08T08:06:54.604Z,93.37
2023-04-08T08:07:54.582Z,93.37
2023-04-08T08:08:54.584Z,93.26
2023-04-08T08:09:54.574Z,93.26
2023-04-08T08:10:54.555Z,93.37
2023-04-08T08:11:54.523Z,93.47
2023-04-08T08:12:54.524Z,93.68
2023-04-08T08:13:54.502Z,93.88
2023-04-08T08:14:54.508Z,93.98
2023-04-08T08:15:54.652Z,93.98
2023-04-08T08:16:54.467Z,93.98
2023-04-08T08:17:54.463Z,94.09
2023-04-08T08:18:54.440Z,94.04
2023-04-08T08:19:54.430Z,94.15
2023-04-08T08:20:54.414Z,94.04
2023-04-08T08:21:54.390Z,93.94
2023-04-08T08:22:57.636Z,93.84
2023-04-08T08:23:54.372Z,93.84
2023-04-08T08:24:54.392Z,93.84
2023-04-08T08:25:54.350Z,93.94
2023-04-08T08:26:54.332Z,93.84
2023-04-08T08:27:54.351Z,93.84
2023-04-08T08:28:54.324Z,93.63
2023-04-08T08:29:54.346Z,93.63
2023-04-08T08:30:54.334Z,93.32
2023-04-08T08:31:54.276Z,93.22
2023-04-08T08:32:54.265Z,93.22
2023-04-08T08:33:54.247Z,93.12
2023-04-08T08:34:54.238Z,93.12
2023-04-08T08:35:54.268Z,93.22
2023-04-08T08:36:54.229Z,93.28
2023-04-08T08:37:54.193Z,93.49
2023-04-08T08:38:54.189Z,93.59
2023-04-08T08:39:54.166Z,93.49
2023-04-08T08:40:54.177Z,93.38
2023-04-08T08:41:54.144Z,93.38
2023-04-08T08:42:54.142Z,93.07
2023-04-08T08:43:54.133Z,92.97
2023-04-08T08:44:54.108Z,92.76
2023-04-08T08:45:54.150Z,92.76
2023-04-08T08:46:54.175Z,92.86
2023-04-08T08:47:54.094Z,93.03
2023-04-08T08:48:54.059Z,93.34
2023-04-08T08:49:54.048Z,93.44
2023-04-08T08:50:54.059Z,93.65
2023-04-08T08:51:54.012Z,93.65
2023-04-08T08:52:53.996Z,93.85
2023-04-08T08:53:54.310Z,93.85
2023-04-08T08:54:53.982Z,93.44
2023-04-08T08:56:16.462Z,93.03
2023-04-08T08:56:54.947Z,92.82
2023-04-08T08:57:53.936Z,96.24
2023-04-08T08:58:53.941Z,98.21
2023-04-08T08:59:53.907Z,96.46
2023-04-08T09:00:53.931Z,93.73
2023-04-08T09:01:53.981Z,92.49
2023-04-08T09:02:54.137Z,91.66
2023-04-08T09:03:54.255Z,90.73
2023-04-08T09:04:54.044Z,90.57
2023-04-08T09:05:53.857Z,90.57
2023-04-08T09:06:53.820Z,90.78
2023-04-08T09:07:53.844Z,91.09
2023-04-08T09:08:53.797Z,91.50
2023-04-08T09:09:53.780Z,91.71
2023-04-08T09:10:53.788Z,91.81
2023-04-08T09:11:53.756Z,91.71
2023-04-08T09:12:53.747Z,91.19
2023-04-08T09:13:53.728Z,90.73
2023-04-08T09:14:53.728Z,90.53
2023-04-08T09:15:53.728Z,90.33
2023-04-08T09:16:53.806Z,90.22
2023-04-08T09:17:53.730Z,90.43
2023-04-08T09:18:53.728Z,90.64
2023-04-08T09:19:53.645Z,90.84
2023-04-08T09:20:53.663Z,90.94
2023-04-08T09:21:53.627Z,90.94
2023-04-08T09:22:53.617Z,91.05
2023-04-08T09:23:53.852Z,90.73
2023-04-08T09:24:53.619Z,90.84
2023-04-08T09:25:53.599Z,90.84
2023-04-08T09:26:53.566Z,90.73
2023-04-08T09:27:53.547Z,90.94
2023-04-08T09:28:53.601Z,91.25
2023-04-08T09:29:53.594Z,91.52
2023-04-08T09:30:53.527Z,91.72
2023-04-08T09:31:53.516Z,91.83
2023-04-08T09:32:53.609Z,91.62
2023-04-08T09:33:53.484Z,91.46
2023-04-08T09:34:53.469Z,91.21
2023-04-08T09:35:53.493Z,91.15
2023-04-08T09:36:53.450Z,91.36
2023-04-08T09:37:53.430Z,91.62
2023-04-08T09:38:53.409Z,91.93
2023-04-08T09:39:53.388Z,92.14
2023-04-08T09:40:53.423Z,92.14
2023-04-08T09:41:53.409Z,91.93
2023-04-08T09:42:53.372Z,91.83
2023-04-08T09:43:53.527Z,91.83
2023-04-08T09:44:53.331Z,91.83
2023-04-08T09:45:53.351Z,91.72
2023-04-08T09:46:53.307Z,91.72
2023-04-08T09:47:53.295Z,91.72
2023-04-08T09:48:53.267Z,91.83
2023-04-08T09:49:53.274Z,91.72
2023-04-08T09:50:53.246Z,91.62
2023-04-08T09:51:53.252Z,91.52
2023-04-08T09:52:53.214Z,91.52
2023-04-08T09:53:53.217Z,91.62
2023-04-08T09:54:53.237Z,91.72
2023-04-08T09:55:53.181Z,91.68
2023-04-08T09:56:53.188Z,91.68
2023-04-08T09:57:53.161Z,91.78
2023-04-08T09:58:53.135Z,91.99
2023-04-08T09:59:53.133Z,92.40
2023-04-08T10:00:53.205Z,92.71
2023-04-08T10:01:53.192Z,92.92
2023-04-08T10:02:53.195Z,93.12
2023-04-08T10:03:53.349Z,93.23
2023-04-08T10:04:53.553Z,93.33
2023-04-08T10:05:53.053Z,93.43
2023-04-08T10:06:53.067Z,93.43
2023-04-08T10:07:53.031Z,93.54
2023-04-08T10:08:52.999Z,93.70
2023-04-08T10:09:52.993Z,93.90
2023-04-08T10:10:52.979Z,94.01
2023-04-08T10:11:52.983Z,94.01
2023-04-08T10:12:52.964Z,94.01
2023-04-08T10:13:53.202Z,93.90
2023-04-08T10:14:52.919Z,93.90
2023-04-08T10:15:52.918Z,93.90
2023-04-08T10:16:53.334Z,93.90
2023-04-08T10:17:52.908Z,93.90
2023-04-08T10:18:52.932Z,93.76
2023-04-08T10:19:52.861Z,93.76
2023-04-08T10:20:52.848Z,93.76
2023-04-08T10:21:52.852Z,93.65
2023-04-08T10:22:52.829Z,93.65
2023-04-08T10:23:52.804Z,93.65
2023-04-08T10:24:52.832Z,93.65
2023-04-08T10:25:52.820Z,93.55
2023-04-08T10:26:52.775Z,93.35
2023-04-08T10:27:52.752Z,93.35
2023-04-08T10:28:52.733Z,93.44
2023-04-08T10:29:52.725Z,93.51
2023-04-08T10:30:52.706Z,93.51
2023-04-08T10:31:52.867Z,93.51
2023-04-08T10:32:52.716Z,93.40
2023-04-08T10:33:52.662Z,93.40
2023-04-08T10:34:52.652Z,93.51
2023-04-08T10:35:52.706Z,93.40
2023-04-08T10:36:52.639Z,93.40
2023-04-08T10:37:52.603Z,93.30
2023-04-08T10:38:52.601Z,93.20
2023-04-08T10:39:52.581Z,93.10
2023-04-08T10:40:52.564Z,93.10
2023-04-08T10:41:52.585Z,93.20
2023-04-08T10:42:52.534Z,93.30
2023-04-08T10:43:52.747Z,93.30
2023-04-08T10:44:52.515Z,93.20
2023-04-08T10:45:52.782Z,93.10
2023-04-08T10:46:52.492Z,93.10
2023-04-08T10:47:52.528Z,92.99
2023-04-08T10:48:52.456Z,92.89
2023-04-08T10:49:52.448Z,92.79
2023-04-08T10:50:52.435Z,92.74
2023-04-08T10:51:52.418Z,92.85
2023-04-08T10:52:52.441Z,92.74
2023-04-08T10:53:52.599Z,92.64
2023-04-08T10:54:52.374Z,92.54
2023-04-08T10:55:52.368Z,92.85
2023-04-08T10:56:52.412Z,93.21
2023-04-08T10:57:52.354Z,92.50
2023-04-08T10:58:52.315Z,92.08
2023-04-08T10:59:52.306Z,91.99
2023-04-08T11:00:52.297Z,91.78
2023-04-08T11:01:52.467Z,91.42
2023-04-08T11:02:52.443Z,90.81
2023-04-08T11:03:52.647Z,89.27
2023-04-08T11:04:52.240Z,85.52
2023-04-08T11:05:52.235Z,84.08
2023-04-08T11:06:52.217Z,85.06
2023-04-08T11:07:52.219Z,85.47
2023-04-08T11:08:52.332Z,84.55
2023-04-08T11:09:54.235Z,84.14
2023-04-08T11:10:54.234Z,83.73
2023-04-08T11:11:52.825Z,83.01
2023-04-08T11:12:52.151Z,82.60
2023-04-08T11:13:53.994Z,81.78
2023-04-08T11:14:52.111Z,81.99
2023-04-08T11:15:52.155Z,83.69
2023-04-08T11:16:52.135Z,83.90
2023-04-08T11:17:52.188Z,86.42
2023-04-08T11:18:52.225Z,85.52
2023-04-08T11:19:52.055Z,84.31
2023-04-08T11:20:52.123Z,82.13
2023-04-08T11:21:52.094Z,79.39
2023-04-08T11:22:52.092Z,77.42
2023-04-08T11:23:52.356Z,76.56
2023-04-08T11:24:51.986Z,75.95
2023-04-08T11:25:52.000Z,74.38
2023-04-08T11:26:51.989Z,73.98
2023-04-08T11:27:51.995Z,73.06
2023-04-08T11:28:52.186Z,72.48
2023-04-08T11:29:51.986Z,74.56
2023-04-08T11:30:51.909Z,75.44
2023-04-08T11:31:51.900Z,75.54
2023-04-08T11:32:51.941Z,74.79
2023-04-08T11:33:52.078Z,75.00
2023-04-08T11:34:52.623Z,73.43
2023-04-08T11:35:52.580Z,72.99
2023-04-08T11:36:51.814Z,73.30
2023-04-08T11:37:51.862Z,74.21
2023-04-08T11:38:51.867Z,74.62
2023-04-08T11:39:51.831Z,73.50
2023-04-08T11:40:51.776Z,74.05
2023-04-08T11:41:51.759Z,74.05
2023-04-08T11:42:52.065Z,75.27
2023-04-08T11:43:51.986Z,76.12
2023-04-08T11:44:51.740Z,76.43
2023-04-08T11:45:51.970Z,75.98
2023-04-08T11:46:51.734Z,75.78
2023-04-08T11:47:51.714Z,76.32
2023-04-08T11:48:51.665Z,76.84
2023-04-08T11:49:51.660Z,77.25
2023-04-08T11:50:51.662Z,77.75
2023-04-08T11:51:51.618Z,77.34
2023-04-08T11:52:51.677Z,77.14
2023-04-08T11:53:52.695Z,75.65
2023-04-08T11:54:51.577Z,76.29
2023-04-08T11:55:51.625Z,76.09
2023-04-08T11:56:51.590Z,75.82
2023-04-08T11:57:51.678Z,75.62
2023-04-08T11:58:51.601Z,76.06
2023-04-08T11:59:51.584Z,77.19
2023-04-08T12:00:51.498Z,77.59
2023-04-08T12:01:51.540Z,77.94
2023-04-08T12:02:51.645Z,77.73
2023-04-08T12:03:51.826Z,77.94
2023-04-08T12:04:51.467Z,74.76
2023-04-08T12:05:51.465Z,74.29
2023-04-08T12:06:51.420Z,75.31
2023-04-08T12:07:51.429Z,75.72
2023-04-08T12:08:51.397Z,76.23
2023-04-08T12:09:51.412Z,77.76
2023-04-08T12:10:51.372Z,77.46
2023-04-08T12:11:51.368Z,74.90
2023-04-08T12:12:51.364Z,74.49
2023-04-08T12:13:51.718Z,74.39
2023-04-08T12:14:51.354Z,72.86
2023-04-08T12:15:51.409Z,73.06
2023-04-08T12:16:51.292Z,73.03
2023-04-08T12:17:51.437Z,75.38
2023-04-08T12:18:51.264Z,72.92
2023-04-08T12:19:51.254Z,72.58
2023-04-08T12:20:51.274Z,75.14
2023-04-08T12:21:51.230Z,75.55
2023-04-08T12:22:51.307Z,76.67
2023-04-08T12:23:51.446Z,73.91
2023-04-08T12:24:51.277Z,75.55
2023-04-08T12:25:51.171Z,74.52
2023-04-08T12:26:51.547Z,74.22
2023-04-08T12:27:51.252Z,74.93
2023-04-08T12:28:51.148Z,74.22
2023-04-08T12:29:51.246Z,74.32
2023-04-08T12:30:51.159Z,73.68
2023-04-08T12:31:51.147Z,73.27
2023-04-08T12:32:51.151Z,72.38
2023-04-08T12:33:51.487Z,72.99
2023-04-08T12:34:51.099Z,72.99
2023-04-08T12:35:51.170Z,73.30
2023-04-08T12:36:51.042Z,73.61
2023-04-08T12:37:51.752Z,73.10
2023-04-08T12:38:51.237Z,73.50
2023-04-08T12:39:50.998Z,72.89
2023-04-08T12:40:51.016Z,71.36
2023-04-08T12:41:50.990Z,72.48
2023-04-08T12:42:51.067Z,74.08
2023-04-08T12:43:50.952Z,75.31
2023-04-08T12:44:50.954Z,75.37
2023-04-08T12:45:50.943Z,74.97
2023-04-08T12:46:50.931Z,74.25
2023-04-08T12:47:50.945Z,73.54
2023-04-08T12:48:59.949Z,74.25
2023-04-08T12:49:51.868Z,76.43
2023-04-08T12:50:50.892Z,74.39
2023-04-08T12:51:50.841Z,73.88